CST,Max TemperatureF,Mean TemperatureF,Min TemperatureF,Max Dew PointF,MeanDew PointF,Min DewpointF,Max Humidity, Mean Humidity, Min Humidity, Max Sea Level PressureIn, Mean Sea Level PressureIn, Min Sea Level PressureIn, Max VisibilityMiles, Mean VisibilityMiles, Min VisibilityMiles, Max Wind SpeedMPH, Mean Wind SpeedMPH, Max Gust SpeedMPH,PrecipitationIn, CloudCover, Events, WindDirDegrees
2012-2-1,40,33,26,34,29,24,92,86,79,30.20,30.13,30.01,10,3,0,7,3,9,0.00,3,Fog,324
2012-2-2,46,36,25,37,28,21,96,83,70,30.40,30.29,30.18,5,1,0,12,4,15,0.00,5,Fog-Snow,57
2012-2-3,34,33,31,31,30,28,92,89,85,30.46,30.38,30.30,3,1,0,20,13,25,0.23,8,Fog-Rain,72
2012-2-4,39,36,33,34,31,27,89,80,70,30.33,30.24,30.18,10,5,2,21,12,25,0.05,7,Rain,48
2012-2-5,42,35,27,33,28,23,85,75,65,30.35,30.32,30.25,10,7,4,13,8,15,0.00,3,,325
2012-2-6,30,25,20,27,24,17,92,88,84,30.28,30.22,30.16,6,4,2,12,8,15,0.00,6,,266
2012-2-7,33,26,19,27,23,17,92,88,84,30.44,30.25,30.19,5,3,1,18,8,50,0.01,7,Snow,50
2012-2-8,33,26,18,19,18,18,75,75,75,30.46,30.43,30.39,10,10,9,16,8,,0.00,4,,305
2012-2-9,33,24,14,,,,,,,,,,,,,17,10,25,0.00,,,
2012-2-10,33,24,14,27,14,0,78,63,47,30.39,30.15,29.96,10,7,2,25,15,31,T,7,Snow,346
2012-2-11,24,17,9,1,-1,-4,64,50,36,30.54,30.50,30.41,10,10,10,29,17,37,0.00,0,,315
2012-2-12,35,23,11,5,2,-1,66,45,23,30.51,30.41,30.26,10,10,10,21,11,24,0.00,0,,284
2012-2-13,31,23,14,28,23,4,92,69,46,30.24,29.97,29.83,10,4,0,18,10,23,0.07,8,Fog-Snow,175
2012-2-14,35,33,30,29,27,26,92,81,70,29.99,29.88,29.79,9,6,2,15,9,21,T,7,Snow,216
2012-2-15,41,34,26,36,32,23,92,83,73,30.03,29.98,29.94,6,3,0,14,7,17,0.15,6,Fog-Rain,143
2012-2-16,46,37,28,34,29,23,96,73,49,30.19,30.09,29.98,10,4,0,23,10,28,0.00,4,Fog,296
2012-2-17,51,37,22,34,25,18,81,65,49,30.20,30.11,30.02,10,10,7,29,11,33,0.00,2,,241
2012-2-18,40,31,22,23,19,16,84,62,40,30.27,30.21,30.14,10,10,9,15,7,18,0.00,0,,15
2012-2-19,40,30,19,23,19,13,88,64,40,30.25,30.21,30.17,10,10,4,10,6,,0.00,0,,99
2012-2-20,45,33,21,30,23,15,82,61,39,30.25,30.05,29.79,10,7,0,24,14,30,0.10,2,Fog-Snow,139
2012-2-21,47,39,31,33,31,30,92,84,76,29.75,29.67,29.62,10,4,1,25,13,32,0.18,8,Rain-Snow,176
2012-2-22,49,40,30,36,31,25,85,71,56,29.54,29.47,29.43,10,10,8,16,6,21,T,4,,227
2012-2-23,36,32,27,34,30,25,92,87,82,29.51,29.47,29.42,8,3,1,22,9,25,0.43,7,Rain-Snow,65
2012-2-24,33,27,21,30,24,15,92,80,68,30.07,29.77,29.48,10,5,1,28,19,35,0.17,8,Snow,308
2012-2-25,23,19,14,16,10,5,80,73,65,30.33,30.24,30.05,10,10,6,24,11,30,T,1,,292
2012-2-26,54,36,18,37,24,12,80,63,46,30.23,30.04,29.91,10,10,10,32,17,43,0.00,1,,207
2012-2-27,36,29,22,23,20,17,81,69,56,30.50,30.40,30.17,10,10,10,26,13,32,0.00,2,,292
2012-2-28,46,34,22,40,29,20,89,71,53,30.46,30.08,29.62,10,8,4,24,14,31,0.12,7,Rain,126
2012-2-29,53,43,33,47,34,26,83,68,53,29.73,29.54,29.40,10,6,1,38,25,46,0.39,6,Rain-Snow-Thunderstorm,226